createdAt,value
2017-09-24T00:02:03.370Z,75.27
2017-09-24T00:04:30.191Z,68.63
2017-09-24T00:06:57.183Z,64.10
2017-09-24T00:09:23.959Z,61.17
2017-09-24T00:11:50.769Z,61.97
2017-09-24T00:14:17.569Z,75.17
2017-09-24T00:16:44.359Z,69.40
2017-09-24T00:19:11.163Z,80.30
2017-09-24T00:21:38.001Z,70.80
2017-09-24T00:24:05.542Z,55.90
2017-09-24T00:26:32.403Z,55.47
2017-09-24T00:28:59.321Z,66.07
2017-09-24T00:31:26.197Z,76.23
2017-09-24T00:33:53.053Z,74.50
2017-09-24T00:36:19.858Z,54.23
2017-09-24T00:38:46.697Z,57.83
2017-09-24T00:41:13.565Z,52.90
2017-09-24T00:43:40.450Z,58.70
2017-09-24T00:46:07.341Z,59.67
2017-09-24T00:48:34.943Z,62.57
2017-09-24T00:51:01.768Z,57.50
2017-09-24T00:53:29.426Z,86.53
2017-09-24T00:55:56.322Z,79.27
2017-09-24T00:58:23.987Z,74.37
2017-09-24T01:00:51.594Z,89.20
2017-09-24T01:03:18.484Z,74.93
2017-09-24T01:05:45.345Z,85.30
2017-09-24T01:08:12.187Z,73.17
2017-09-24T01:10:39.074Z,87.33
2017-09-24T01:13:05.969Z,117.07
2017-09-24T01:15:34.207Z,85.77
2017-09-24T01:18:01.070Z,75.27
2017-09-24T01:20:27.972Z,75.00
2017-09-24T01:22:54.874Z,70.53
2017-09-24T01:25:21.728Z,74.90
2017-09-24T01:27:49.362Z,75.37
2017-09-24T01:30:16.259Z,69.23
2017-09-24T01:32:43.927Z,92.40
2017-09-24T01:35:10.806Z,89.37
2017-09-24T01:37:38.475Z,80.47
2017-09-24T01:40:05.357Z,80.73
2017-09-24T01:42:32.968Z,73.53
2017-09-24T01:44:59.874Z,79.20
2017-09-24T01:47:26.745Z,62.80
2017-09-24T01:49:54.391Z,68.77
2017-09-24T01:52:21.339Z,88.73
2017-09-24T01:54:48.250Z,69.43
2017-09-24T01:57:15.879Z,79.53
2017-09-24T01:59:42.768Z,63.00
2017-09-24T02:02:09.627Z,67.07
2017-09-24T02:04:36.495Z,74.57
2017-09-24T02:07:03.381Z,111.73
2017-09-24T02:09:30.999Z,69.50
2017-09-24T02:11:57.820Z,85.80
2017-09-24T02:14:25.356Z,85.40
2017-09-24T02:16:52.160Z,145.17
2017-09-24T02:19:18.990Z,82.47
2017-09-24T02:21:45.808Z,76.43
2017-09-24T02:24:12.645Z,95.53
2017-09-24T02:26:40.210Z,66.67
2017-09-24T02:29:07.043Z,95.87
2017-09-24T02:31:33.879Z,74.47
2017-09-24T02:34:00.739Z,62.90
2017-09-24T02:36:27.601Z,73.20
2017-09-24T02:38:54.432Z,100.90
2017-09-24T02:41:21.980Z,71.80
2017-09-24T03:02:50.147Z,64.80
2017-09-24T03:05:16.959Z,80.93
2017-09-24T03:07:43.787Z,105.33
2017-09-24T03:10:10.587Z,65.00
2017-09-24T03:12:37.415Z,68.23
2017-09-24T03:15:04.209Z,56.13
2017-09-24T03:17:31.016Z,58.67
2017-09-24T03:19:57.800Z,54.40
2017-09-24T03:22:25.349Z,65.77
2017-09-24T03:24:52.210Z,77.60
2017-09-24T03:27:19.051Z,57.80
2017-09-24T03:29:45.864Z,74.00
2017-09-24T03:32:13.398Z,62.90
2017-09-24T03:34:40.205Z,59.93
2017-09-24T03:37:07.058Z,63.10
2017-09-24T03:39:34.594Z,59.50
2017-09-24T03:42:01.419Z,63.03
2017-09-24T03:44:28.222Z,65.63
2017-09-24T03:46:55.009Z,60.20
2017-09-24T03:49:21.832Z,58.83
2017-09-24T03:51:48.634Z,59.30
2017-09-24T03:54:15.444Z,48.80
2017-09-24T03:56:42.251Z,59.30
2017-09-24T03:59:09.053Z,50.50
2017-09-24T04:01:35.851Z,51.50
2017-09-24T04:04:02.682Z,60.67
2017-09-24T04:06:29.493Z,51.67
2017-09-24T04:08:56.306Z,52.47
2017-09-24T04:11:23.175Z,62.50
2017-09-24T04:13:50.008Z,51.73
2017-09-24T04:16:16.796Z,59.10
2017-09-24T04:18:43.618Z,49.90
2017-09-24T04:21:10.428Z,49.07
2017-09-24T04:23:37.276Z,65.97
2017-09-24T04:26:04.087Z,61.67
2017-09-24T04:28:31.628Z,50.20
2017-09-24T04:30:58.454Z,52.10
2017-09-24T04:33:25.601Z,57.30
2017-09-24T04:35:52.395Z,56.80
2017-09-24T04:38:19.221Z,61.57
2017-09-24T04:40:46.032Z,51.00
2017-09-24T04:43:12.865Z,50.33
2017-09-24T04:45:39.631Z,57.93
2017-09-24T04:48:06.446Z,45.17
2017-09-24T04:50:33.982Z,47.73
2017-09-24T04:53:00.764Z,53.27
2017-09-24T04:55:27.574Z,50.10
2017-09-24T04:57:54.378Z,55.30
2017-09-24T05:00:21.209Z,51.50
2017-09-24T05:02:47.991Z,56.70
2017-09-24T05:05:14.788Z,52.13
2017-09-24T05:07:42.336Z,64.67
2017-09-24T05:10:09.167Z,63.60
2017-09-24T05:12:35.967Z,55.23
2017-09-24T05:15:02.784Z,57.57
2017-09-24T05:17:29.601Z,53.03
2017-09-24T05:19:56.388Z,53.03
2017-09-24T05:22:23.187Z,53.00
2017-09-24T05:24:50.011Z,50.53
2017-09-24T05:27:16.804Z,52.50
2017-09-24T05:29:43.622Z,55.60
2017-09-24T05:32:10.412Z,54.30
2017-09-24T05:34:37.286Z,50.03
2017-09-24T05:37:04.068Z,58.03
2017-09-24T05:39:30.880Z,57.37
2017-09-24T05:41:57.675Z,55.83
2017-09-24T05:44:24.513Z,50.70
2017-09-24T05:46:51.318Z,53.37
2017-09-24T05:49:18.154Z,50.07
2017-09-24T05:51:44.997Z,46.43
2017-09-24T05:54:11.801Z,48.33
2017-09-24T05:56:38.602Z,50.67
2017-09-24T05:59:05.430Z,48.10
2017-09-24T06:01:33.982Z,48.63
2017-09-24T06:04:00.822Z,46.43
2017-09-24T06:06:27.651Z,48.40
2017-09-24T06:08:55.180Z,47.13
2017-09-24T06:11:21.975Z,46.83
2017-09-24T06:13:48.840Z,48.10
2017-09-24T06:16:15.710Z,46.33
2017-09-24T06:18:42.696Z,43.90
2017-09-24T06:21:10.090Z,50.73
2017-09-24T06:23:36.937Z,45.90
2017-09-24T06:26:03.764Z,45.27
2017-09-24T06:28:31.369Z,49.03
2017-09-24T06:30:58.196Z,48.83
2017-09-24T06:33:25.021Z,43.90
2017-09-24T06:35:51.850Z,48.40
2017-09-24T06:38:18.702Z,49.40
2017-09-24T06:40:46.262Z,57.17
2017-09-24T06:43:13.063Z,52.60
2017-09-24T06:45:39.888Z,49.07
2017-09-24T06:48:07.706Z,55.23
2017-09-24T06:50:34.494Z,49.43
2017-09-24T06:53:01.318Z,54.33
2017-09-24T06:55:28.108Z,53.93
2017-09-24T06:57:54.922Z,54.00
2017-09-24T07:00:22.517Z,53.03
2017-09-24T07:02:49.388Z,50.30
2017-09-24T07:05:16.195Z,52.80
2017-09-24T07:07:43.033Z,48.90
2017-09-24T07:10:09.835Z,56.90
2017-09-24T07:12:36.620Z,52.37
2017-09-24T07:15:03.487Z,57.33
2017-09-24T07:17:31.055Z,58.53
2017-09-24T07:20:00.070Z,58.17
2017-09-24T07:22:26.914Z,58.30
2017-09-24T07:24:54.458Z,57.30
2017-09-24T07:27:21.283Z,56.23
2017-09-24T07:29:48.133Z,57.70
2017-09-24T07:32:14.954Z,55.67
2017-09-24T07:34:41.762Z,52.17
2017-09-24T07:37:08.641Z,59.20
2017-09-24T07:39:35.502Z,57.27
2017-09-24T07:42:02.319Z,52.43
2017-09-24T07:44:29.864Z,56.80
2017-09-24T07:46:56.684Z,54.03
2017-09-24T07:49:23.472Z,55.83
2017-09-24T07:51:50.319Z,58.50
2017-09-24T07:54:17.151Z,59.47
2017-09-24T07:56:43.988Z,58.53
2017-09-24T07:59:11.599Z,61.00
2017-09-24T08:01:38.430Z,58.90
2017-09-24T08:04:05.279Z,65.40
2017-09-24T08:06:32.068Z,63.93
2017-09-24T08:08:58.934Z,58.50
2017-09-24T08:11:25.754Z,63.13
2017-09-24T08:13:52.562Z,53.77
2017-09-24T08:16:19.401Z,58.80
2017-09-24T08:18:46.963Z,57.10
2017-09-24T08:21:13.807Z,57.30
2017-09-24T08:23:40.637Z,50.60
2017-09-24T08:26:07.460Z,60.53
2017-09-24T08:28:34.975Z,52.80
2017-09-24T08:31:01.783Z,57.40
2017-09-24T08:33:29.142Z,54.33
2017-09-24T08:35:56.725Z,54.80
2017-09-24T08:38:23.598Z,58.67
2017-09-24T08:40:51.155Z,70.53
2017-09-24T08:43:17.961Z,60.60
2017-09-24T08:45:44.752Z,61.07
2017-09-24T08:48:11.629Z,58.83
2017-09-24T08:50:38.516Z,65.67
2017-09-24T08:53:05.360Z,58.80
2017-09-24T08:55:32.213Z,55.20
2017-09-24T08:57:59.032Z,59.93
2017-09-24T09:00:25.904Z,59.77
2017-09-24T09:02:52.760Z,59.30
2017-09-24T09:05:19.599Z,60.60
2017-09-24T09:07:46.454Z,59.90
2017-09-24T09:10:13.299Z,63.30
2017-09-24T09:12:40.103Z,58.30
2017-09-24T09:15:06.920Z,60.40
2017-09-24T09:17:33.713Z,65.13
2017-09-24T09:20:00.544Z,59.60
2017-09-24T09:22:27.369Z,60.80
2017-09-24T09:24:54.165Z,71.73
2017-09-24T09:27:20.960Z,65.67
2017-09-24T09:29:47.783Z,55.00
2017-09-24T09:32:14.657Z,63.40
2017-09-24T09:35:00.336Z,61.80
2017-09-24T09:37:27.135Z,58.27
2017-09-24T09:39:54.287Z,57.30
2017-09-24T09:42:21.199Z,62.33
2017-09-24T09:44:52.008Z,67.97
2017-09-24T09:47:26.053Z,61.03
2017-09-24T09:49:53.111Z,64.47
2017-09-24T09:52:20.135Z,53.50
2017-09-24T09:54:51.269Z,56.53
2017-09-24T09:57:18.551Z,54.30
2017-09-24T09:59:45.724Z,51.17
2017-09-24T10:02:12.977Z,51.83
2017-09-24T10:04:39.849Z,52.10
2017-09-24T10:07:40.594Z,46.87
2017-09-24T10:10:15.559Z,49.53
2017-09-24T10:12:42.449Z,52.47
2017-09-24T10:15:09.321Z,46.93
2017-09-24T10:17:36.735Z,43.63
2017-09-24T10:20:03.589Z,40.50
2017-09-24T10:22:30.452Z,39.60
2017-09-24T10:24:57.268Z,39.80
2017-09-24T10:27:24.093Z,37.37
2017-09-24T10:30:08.966Z,36.73
2017-09-24T10:32:35.849Z,37.93
2017-09-24T10:35:03.549Z,38.77
2017-09-24T10:37:30.143Z,34.03
2017-09-24T10:39:56.971Z,31.40
2017-09-24T10:42:23.779Z,30.10
2017-09-24T10:44:50.642Z,35.30
2017-09-24T10:47:17.521Z,38.43
2017-09-24T10:49:45.057Z,37.97
2017-09-24T10:52:11.900Z,38.07
2017-09-24T10:54:38.708Z,37.80
2017-09-24T10:57:05.544Z,34.77
2017-09-24T10:59:32.347Z,37.57
2017-09-24T11:01:59.975Z,33.93
2017-09-24T11:04:26.800Z,31.40
2017-09-24T11:06:53.645Z,36.07
2017-09-24T11:09:21.198Z,29.80
2017-09-24T11:11:48.002Z,33.13
2017-09-24T11:14:14.820Z,29.00
2017-09-24T11:16:41.662Z,30.37
2017-09-24T11:19:08.506Z,31.40
2017-09-24T11:21:35.352Z,30.20
2017-09-24T11:24:02.194Z,31.83
2017-09-24T11:26:29.755Z,31.30
2017-09-24T11:28:57.400Z,30.87
2017-09-24T11:31:24.215Z,33.10
2017-09-24T11:33:51.083Z,29.13
2017-09-24T11:36:17.911Z,28.83
2017-09-24T11:38:44.736Z,29.67
2017-09-24T11:41:11.563Z,29.10
2017-09-24T11:43:38.375Z,27.60
2017-09-24T11:46:05.200Z,30.27
2017-09-24T11:48:32.017Z,28.00
2017-09-24T11:50:58.873Z,25.40
2017-09-24T11:53:26.076Z,25.90
2017-09-24T11:55:52.891Z,29.37
2017-09-24T11:58:19.771Z,29.27
2017-09-24T12:00:47.364Z,30.73
2017-09-24T12:03:14.924Z,32.53
2017-09-24T12:05:41.787Z,28.03
2017-09-24T12:08:08.640Z,28.37
2017-09-24T12:10:35.545Z,27.80
2017-09-24T12:13:02.355Z,33.30
2017-09-24T12:15:29.183Z,31.83
2017-09-24T12:17:56.102Z,30.00
2017-09-24T12:20:23.675Z,31.57
2017-09-24T12:22:50.479Z,34.07
2017-09-24T12:25:17.319Z,31.73
2017-09-24T12:27:44.900Z,30.23
2017-09-24T12:30:11.781Z,27.67
2017-09-24T12:32:39.363Z,30.27
2017-09-24T12:35:06.152Z,32.00
2017-09-24T12:37:32.976Z,31.13
2017-09-24T12:39:59.822Z,29.40
2017-09-24T12:42:26.670Z,29.20
2017-09-24T12:44:53.440Z,31.27
2017-09-24T12:47:20.243Z,28.53
2017-09-24T12:49:47.082Z,30.83
2017-09-24T12:52:13.955Z,27.60
2017-09-24T12:54:40.756Z,28.63
2017-09-24T12:57:07.549Z,28.97
2017-09-24T12:59:34.382Z,31.40
2017-09-24T13:02:01.980Z,29.37
2017-09-24T13:04:28.846Z,26.27
2017-09-24T13:06:55.690Z,26.00
2017-09-24T13:09:23.316Z,25.57
2017-09-24T13:11:50.103Z,23.27
2017-09-24T13:14:16.917Z,26.20
2017-09-24T13:16:43.737Z,23.10
2017-09-24T13:19:10.574Z,27.77
2017-09-24T13:21:37.391Z,27.80
2017-09-24T13:24:04.194Z,28.50
2017-09-24T13:26:31.026Z,29.00
2017-09-24T13:28:58.076Z,30.57
2017-09-24T13:31:24.857Z,28.93
2017-09-24T13:33:51.682Z,29.87
2017-09-24T13:36:19.214Z,29.00
2017-09-24T13:38:46.026Z,26.53
2017-09-24T13:41:13.560Z,29.53
2017-09-24T13:43:40.368Z,28.93
2017-09-24T13:46:07.157Z,27.40
2017-09-24T13:48:34.019Z,26.67
2017-09-24T13:51:00.845Z,24.90
2017-09-24T13:53:28.407Z,26.43
2017-09-24T13:55:55.994Z,28.83
2017-09-24T13:58:23.611Z,26.50
2017-09-24T14:00:50.415Z,26.43
2017-09-24T14:03:17.216Z,24.53
2017-09-24T14:05:44.023Z,24.23
2017-09-24T14:08:10.820Z,26.87
2017-09-24T14:10:37.603Z,26.20
2017-09-24T14:13:04.429Z,26.40
2017-09-24T14:15:31.985Z,23.90
2017-09-24T14:17:58.779Z,21.93
2017-09-24T14:20:25.578Z,22.80
2017-09-24T14:22:52.407Z,25.37
2017-09-24T14:25:19.239Z,24.50
2017-09-24T14:27:46.062Z,22.50
2017-09-24T14:30:12.906Z,22.57
2017-09-24T14:32:39.801Z,22.93
2017-09-24T14:35:06.599Z,24.90
2017-09-24T14:37:35.047Z,23.60
2017-09-24T14:40:01.883Z,23.20
2017-09-24T14:42:28.696Z,21.00
2017-09-24T14:44:55.512Z,18.83
2017-09-24T14:47:22.349Z,24.57
2017-09-24T14:49:49.178Z,24.03
2017-09-24T14:52:16.042Z,27.70
2017-09-24T14:54:42.933Z,25.30
2017-09-24T14:57:09.806Z,26.70
2017-09-24T14:59:36.639Z,28.57
2017-09-24T15:02:03.496Z,28.03
2017-09-24T15:04:30.380Z,27.90
2017-09-24T15:06:58.981Z,26.40
2017-09-24T15:09:25.859Z,30.37
2017-09-24T15:11:53.454Z,31.50
2017-09-24T15:14:20.369Z,32.03
2017-09-24T15:16:47.950Z,31.03
2017-09-24T15:19:15.588Z,32.33
2017-09-24T15:21:42.507Z,31.80
2017-09-24T15:24:09.383Z,28.30
2017-09-24T15:26:36.280Z,26.83
2017-09-24T15:29:03.251Z,24.93
2017-09-24T15:31:30.084Z,27.03
2017-09-24T15:33:56.949Z,24.87
2017-09-24T15:36:23.764Z,25.43
2017-09-24T15:38:51.336Z,23.63
2017-09-24T15:41:18.919Z,25.37
2017-09-24T15:43:45.750Z,24.40
2017-09-24T15:46:12.718Z,23.07
2017-09-24T15:48:39.551Z,23.43
2017-09-24T15:51:06.388Z,24.37
2017-09-24T15:53:33.281Z,22.47
2017-09-24T15:56:00.136Z,23.00
2017-09-24T15:58:26.993Z,23.10
2017-09-24T16:00:53.819Z,20.90
2017-09-24T16:03:21.385Z,20.13
2017-09-24T16:05:48.217Z,19.90
2017-09-24T16:08:15.053Z,22.10
2017-09-24T16:10:41.871Z,18.57
2017-09-24T16:13:09.421Z,18.23
2017-09-24T16:15:36.258Z,20.30
2017-09-24T16:18:03.106Z,16.90
2017-09-24T16:20:30.046Z,16.73
2017-09-24T16:22:56.953Z,15.63
2017-09-24T16:25:23.771Z,15.40
2017-09-24T16:27:50.649Z,15.97
2017-09-24T16:30:17.527Z,16.03
2017-09-24T16:32:44.374Z,16.93
2017-09-24T16:35:13.292Z,16.10
2017-09-24T16:37:40.881Z,15.83
2017-09-24T16:40:07.724Z,15.43
2017-09-24T16:42:34.548Z,15.13
2017-09-24T16:45:02.136Z,13.33
2017-09-24T16:47:28.969Z,14.27
2017-09-24T16:49:56.337Z,13.53
2017-09-24T16:52:23.275Z,15.13
2017-09-24T16:54:50.130Z,13.93
2017-09-24T16:57:17.007Z,12.43
2017-09-24T16:59:43.871Z,10.50
2017-09-24T17:02:10.719Z,12.80
2017-09-24T17:04:37.604Z,12.10
2017-09-24T17:07:04.417Z,12.37
2017-09-24T17:09:31.281Z,11.20
2017-09-24T17:11:58.162Z,10.90
2017-09-24T17:14:25.018Z,10.73
2017-09-24T17:16:51.999Z,12.47
2017-09-24T17:19:18.875Z,13.37
2017-09-24T17:21:45.868Z,13.00
2017-09-24T17:24:12.720Z,12.77
2017-09-24T17:26:40.515Z,11.13
2017-09-24T17:29:07.364Z,10.90
2017-09-24T17:31:34.194Z,11.53
2017-09-24T17:34:01.075Z,12.00
2017-09-24T17:36:27.875Z,12.00
2017-09-24T17:38:54.751Z,11.50
2017-09-24T17:41:21.578Z,10.50
2017-09-24T17:43:49.190Z,11.10
2017-09-24T17:46:16.038Z,10.70
2017-09-24T17:48:42.914Z,11.20
2017-09-24T17:51:09.833Z,11.07
2017-09-24T17:53:36.830Z,12.40
2017-09-24T17:56:03.740Z,11.63
2017-09-24T17:58:30.626Z,25.00
2017-09-24T18:00:57.593Z,51.87
2017-09-24T18:03:25.195Z,37.83
2017-09-24T18:05:52.040Z,31.43
2017-09-24T18:08:19.024Z,27.80
2017-09-24T18:10:46.196Z,29.00
2017-09-24T18:13:14.104Z,34.17
2017-09-24T18:15:42.653Z,25.80
2017-09-24T18:18:10.037Z,22.73
2017-09-24T18:20:38.432Z,22.87
2017-09-24T18:23:06.401Z,24.00
2017-09-24T18:25:34.996Z,32.00
2017-09-24T18:28:03.415Z,38.50
2017-09-24T18:30:32.282Z,56.93
2017-09-24T18:33:01.226Z,33.10
2017-09-24T18:35:29.599Z,30.40
2017-09-24T18:37:57.539Z,29.17
2017-09-24T18:40:26.996Z,28.07
2017-09-24T18:42:55.663Z,25.20
2017-09-24T18:45:23.646Z,21.27
2017-09-24T18:47:52.358Z,20.07
2017-09-24T18:50:21.759Z,18.37
2017-09-24T18:52:51.151Z,17.93
2017-09-24T18:55:20.016Z,18.50
2017-09-24T18:57:52.013Z,18.40
2017-09-24T19:00:20.673Z,18.27
2017-09-24T19:02:48.526Z,15.57
2017-09-24T19:05:17.159Z,16.50
2017-09-24T19:07:46.022Z,17.77
2017-09-24T19:10:14.867Z,16.87
2017-09-24T19:15:45.739Z,16.53
2017-09-24T19:18:15.334Z,16.27
2017-09-24T19:20:43.966Z,16.50
2017-09-24T19:23:12.785Z,17.10
2017-09-24T19:25:42.920Z,15.97
2017-09-24T19:28:12.632Z,15.40
2017-09-24T19:30:44.329Z,17.73
2017-09-24T19:33:13.097Z,16.00
2017-09-24T19:35:42.006Z,15.00
2017-09-24T19:38:11.267Z,16.73
2017-09-24T19:40:40.024Z,17.00
2017-09-24T19:43:11.549Z,17.63
2017-09-24T19:45:40.607Z,18.97
2017-09-24T19:48:09.448Z,17.40
2017-09-24T19:50:38.669Z,15.50
2017-09-24T19:53:07.371Z,15.07
2017-09-24T19:55:34.573Z,15.67
2017-09-24T19:58:01.487Z,15.38
2017-09-24T20:00:28.463Z,18.05
2017-09-24T20:02:55.326Z,16.13
2017-09-24T20:05:22.432Z,14.57
2017-09-24T20:07:49.299Z,16.37
2017-09-24T20:10:16.685Z,16.20
2017-09-24T20:12:43.504Z,15.23
2017-09-24T20:15:11.112Z,14.80
2017-09-24T20:17:37.970Z,15.40
2017-09-24T20:20:04.849Z,14.13
2017-09-24T20:22:31.661Z,15.43
2017-09-24T20:24:58.498Z,14.27
2017-09-24T20:27:25.341Z,14.33
2017-09-24T20:29:53.562Z,16.33
2017-09-24T20:32:20.700Z,16.03
2017-09-24T20:34:48.315Z,16.53
2017-09-24T20:37:15.644Z,13.77
2017-09-24T20:39:43.766Z,14.03
2017-09-24T20:42:11.851Z,13.07
2017-09-24T20:44:39.373Z,13.50
2017-09-24T20:47:06.846Z,14.70
2017-09-24T20:49:33.953Z,15.13
2017-09-24T20:52:01.593Z,14.43
2017-09-24T20:54:28.814Z,14.33
2017-09-24T20:56:56.063Z,14.03
2017-09-24T20:59:23.595Z,13.87
2017-09-24T21:01:51.835Z,15.13
2017-09-24T21:04:19.415Z,14.97
2017-09-24T21:06:46.332Z,13.73
2017-09-24T21:09:14.047Z,13.73
2017-09-24T21:11:41.475Z,14.90
2017-09-24T21:14:08.397Z,14.60
2017-09-24T21:16:35.960Z,16.33
2017-09-24T21:19:02.797Z,13.83
2017-09-24T21:21:29.642Z,12.33
2017-09-24T21:23:56.465Z,14.47
2017-09-24T21:26:23.317Z,14.53
2017-09-24T21:28:50.954Z,14.60
2017-09-24T21:31:17.797Z,14.73
2017-09-24T21:33:44.628Z,15.17
2017-09-24T21:36:12.219Z,14.93
2017-09-24T21:38:39.077Z,13.60
2017-09-24T21:41:05.912Z,13.17
2017-09-24T21:43:32.752Z,12.30
2017-09-24T21:45:59.584Z,14.17
2017-09-24T21:48:26.433Z,13.87
2017-09-24T21:50:53.279Z,15.77
2017-09-24T21:53:20.117Z,16.70
2017-09-24T21:55:47.679Z,17.43
2017-09-24T21:58:14.544Z,15.30
2017-09-24T22:00:41.437Z,14.30
2017-09-24T22:03:09.510Z,14.57
2017-09-24T22:05:37.075Z,14.23
2017-09-24T22:08:03.951Z,13.27
2017-09-24T22:10:30.809Z,12.17
2017-09-24T22:12:57.663Z,13.13
2017-09-24T22:15:24.538Z,14.03
2017-09-24T22:17:52.080Z,14.27
2017-09-24T22:20:18.884Z,12.60
2017-09-24T22:22:45.695Z,13.63
2017-09-24T22:25:12.498Z,12.90
2017-09-24T22:27:40.086Z,15.10
2017-09-24T22:30:07.632Z,15.33
2017-09-24T22:32:34.454Z,15.20
2017-09-24T22:35:01.240Z,13.23
2017-09-24T22:37:28.027Z,14.00
2017-09-24T22:39:54.800Z,13.40
2017-09-24T22:42:22.321Z,14.33
2017-09-24T22:44:49.941Z,14.43
2017-09-24T22:47:16.782Z,14.17
2017-09-24T22:49:43.623Z,13.63
2017-09-24T22:52:10.467Z,13.03
2017-09-24T22:54:37.251Z,12.40
2017-09-24T22:57:04.047Z,13.87
2017-09-24T22:59:31.024Z,13.23
2017-09-24T23:01:58.821Z,12.40
2017-09-24T23:04:25.600Z,12.30
2017-09-24T23:06:52.457Z,12.73
2017-09-24T23:09:19.256Z,13.00
2017-09-24T23:11:46.082Z,12.63
2017-09-24T23:14:12.894Z,13.70
2017-09-24T23:16:39.679Z,13.23
2017-09-24T23:19:06.516Z,12.70
2017-09-24T23:21:33.304Z,13.33
2017-09-24T23:24:00.100Z,13.60
2017-09-24T23:26:26.890Z,15.43
2017-09-24T23:28:53.701Z,15.47
2017-09-24T23:31:20.558Z,13.10
2017-09-24T23:33:47.354Z,12.80
2017-09-24T23:36:14.338Z,13.73
2017-09-24T23:38:41.294Z,14.63
2017-09-24T23:41:08.351Z,13.93
2017-09-24T23:43:35.189Z,16.80
2017-09-24T23:46:02.156Z,14.93
2017-09-24T23:48:28.965Z,14.87
2017-09-24T23:50:56.634Z,16.73
2017-09-24T23:53:23.440Z,15.20
2017-09-24T23:55:50.263Z,14.20
2017-09-24T23:58:18.010Z,15.77
